Time,TemperatureF,DewpointF,PressureIn,WindDirection,WindDirectionDegrees,WindSpeedMPH,WindSpeedGustMPH,Humidity,HourlyPrecipIn,Conditions,Clouds,dailyrainin,SolarRadiationWatts/m^2,SoftwareType,DateUTC
2013-02-17 00:00:00,25.5,22.2,29.91,SSW,200,3.0,3.0,87,0.00,,,0.00,0,Wunderground v.1.15,2013-02-17 06:00:00,
2013-02-17 00:05:00,25.6,22.5,29.91,SSW,200,2.0,4.0,88,0.00,,,0.00,0,Wunderground v.1.15,2013-02-17 06:05:00,
2013-02-17 00:10:00,25.3,22.0,29.91,SSW,200,2.0,2.0,87,0.00,,,0.00,0,Wunderground v.1.15,2013-02-17 06:10:00,
2013-02-17 00:15:00,25.4,22.1,29.91,SSW,200,4.0,5.0,87,0.00,,,0.00,0,Wunderground v.1.15,2013-02-17 06:15:00,
2013-02-17 00:20:00,26.1,23.0,29.91,SSW,200,4.0,4.0,88,0.00,,,0.00,0,Wunderground v.1.15,2013-02-17 06:20:00,
2013-02-17 00:25:00,26.3,23.2,29.91,SSW,199,4.0,5.0,88,0.00,,,0.00,0,Wunderground v.1.15,2013-02-17 06:25:00,
2013-02-17 00:30:00,26.2,23.1,29.91,SSW,199,4.0,4.0,88,0.00,,,0.00,0,Wunderground v.1.15,2013-02-17 06:30:00,
2013-02-17 00:35:00,26.1,23.0,29.91,SSW,199,2.0,4.0,88,0.00,,,0.00,0,Wunderground v.1.15,2013-02-17 06:35:00,
2013-02-17 00:40:00,25.7,22.6,29.91,SSW,199,0.0,2.0,88,0.00,,,0.00,0,Wunderground v.1.15,2013-02-17 06:40:00,
2013-02-17 00:45:00,25.2,22.1,29.91,SSW,199,0.0,2.0,88,0.00,,,0.00,0,Wunderground v.1.15,2013-02-17 06:45:00,
2013-02-17 00:50:00,24.7,21.7,29.91,SSW,199,4.0,4.0,88,0.00,,,0.00,0,Wunderground v.1.15,2013-02-17 06:50:00,
2013-02-17 00:55:00,25.3,22.2,29.91,SSW,199,3.0,5.0,88,0.00,,,0.00,0,Wunderground v.1.15,2013-02-17 06:55:00,
2013-02-17 01:00:00,25.9,22.8,29.91,SSW,195,4.0,4.0,88,0.00,,,0.00,0,Wunderground v.1.15,2013-02-17 07:00:00,
2013-02-17 01:05:00,26.3,23.2,29.91,SSW,195,3.0,5.0,88,0.00,,,0.00,0,Wunderground v.1.15,2013-02-17 07:05:00,
2013-02-17 01:10:00,26.4,23.3,29.90,SSW,195,4.0,5.0,88,0.00,,,0.00,0,Wunderground v.1.15,2013-02-17 07:10:00,
2013-02-17 01:15:00,26.2,23.1,29.90,SSW,198,4.0,6.0,88,0.00,,,0.00,0,Wunderground v.1.15,2013-02-17 07:15:00,
2013-02-17 01:20:00,26.2,22.9,29.90,SSW,207,4.0,4.0,87,0.00,,,0.00,0,Wunderground v.1.15,2013-02-17 07:20:00,
2013-02-17 01:25:00,26.0,22.7,29.90,SSW,205,4.0,6.0,87,0.00,,,0.00,0,Wunderground v.1.15,2013-02-17 07:25:00,
2013-02-17 01:30:00,25.8,22.5,29.90,SSW,205,3.0,4.0,87,0.00,,,0.00,0,Wunderground v.1.15,2013-02-17 07:30:00,
2013-02-17 01:35:00,25.7,22.4,29.90,SSW,205,4.0,5.0,87,0.00,,,0.00,0,Wunderground v.1.15,2013-02-17 07:35:00,
2013-02-17 01:40:00,25.7,22.4,29.90,SSW,205,5.0,5.0,87,0.00,,,0.00,0,Wunderground v.1.15,2013-02-17 07:40:00,
2013-02-17 01:45:00,25.3,22.0,29.90,SSW,205,5.0,6.0,87,0.00,,,0.00,0,Wunderground v.1.15,2013-02-17 07:45:00,
2013-02-17 01:50:00,25.4,22.1,29.90,SSW,205,5.0,5.0,87,0.00,,,0.00,0,Wunderground v.1.15,2013-02-17 07:50:00,
2013-02-17 01:55:00,25.7,22.4,29.90,SSW,200,4.0,6.0,87,0.00,,,0.00,0,Wunderground v.1.15,2013-02-17 07:55:00,
2013-02-17 02:00:00,25.8,22.5,29.89,SSW,200,3.0,4.0,87,0.00,,,0.00,0,Wunderground v.1.15,2013-02-17 08:00:00,
2013-02-17 02:05:00,25.7,22.1,29.89,SSW,200,3.0,4.0,86,0.00,,,0.00,0,Wunderground v.1.15,2013-02-17 08:05:00,
2013-02-17 02:10:00,25.4,21.8,29.89,SSW,200,2.0,3.0,86,0.00,,,0.00,0,Wunderground v.1.15,2013-02-17 08:10:00,
2013-02-17 02:15:00,25.2,21.6,29.89,SSW,200,4.0,5.0,86,0.00,,,0.00,0,Wunderground v.1.15,2013-02-17 08:15:00,
2013-02-17 02:20:00,25.2,21.6,29.89,SSW,200,3.0,3.0,86,0.00,,,0.00,0,Wunderground v.1.15,2013-02-17 08:20:00,
2013-02-17 02:25:00,24.8,21.2,29.89,SSW,200,2.0,4.0,86,0.00,,,0.00,0,Wunderground v.1.15,2013-02-17 08:25:00,
2013-02-17 02:30:00,24.5,20.9,29.89,SSW,202,2.0,5.0,86,0.00,,,0.00,0,Wunderground v.1.15,2013-02-17 08:30:00,
2013-02-17 02:35:00,24.4,20.8,29.89,SSW,202,4.0,4.0,86,0.00,,,0.00,0,Wunderground v.1.15,2013-02-17 08:35:00,
2013-02-17 02:40:00,24.3,20.7,29.89,SSW,202,2.0,4.0,86,0.00,,,0.00,0,Wunderground v.1.15,2013-02-17 08:40:00,
2013-02-17 02:45:00,23.9,20.3,29.89,SSW,202,2.0,3.0,86,0.00,,,0.00,0,Wunderground v.1.15,2013-02-17 08:45:00,
2013-02-17 02:50:00,23.5,19.9,29.89,SSW,202,3.0,4.0,86,0.00,,,0.00,0,Wunderground v.1.15,2013-02-17 08:50:00,
2013-02-17 02:55:00,23.3,20.0,29.88,SSW,202,4.0,5.0,87,0.00,,,0.00,0,Wunderground v.1.15,2013-02-17 08:55:00,
2013-02-17 03:00:00,23.2,19.9,29.88,SSW,202,4.0,4.0,87,0.00,,,0.00,0,Wunderground v.1.15,2013-02-17 09:00:00,
2013-02-17 03:05:00,23.1,19.8,29.88,SSW,202,3.0,4.0,87,0.00,,,0.00,0,Wunderground v.1.15,2013-02-17 09:05:00,
2013-02-17 03:10:00,23.0,19.7,29.87,SSW,202,2.0,4.0,87,0.00,,,0.00,0,Wunderground v.1.15,2013-02-17 09:10:00,
2013-02-17 03:15:00,22.7,19.4,29.87,SSW,202,2.0,3.0,87,0.00,,,0.00,0,Wunderground v.1.15,2013-02-17 09:15:00,
2013-02-17 03:20:00,22.4,19.1,29.86,SSW,202,2.0,3.0,87,0.00,,,0.00,0,Wunderground v.1.15,2013-02-17 09:20:00,
2013-02-17 03:25:00,22.2,18.9,29.86,SSW,202,3.0,3.0,87,0.00,,,0.00,0,Wunderground v.1.15,2013-02-17 09:25:00,
2013-02-17 03:29:00,22.5,19.2,29.86,SSW,202,3.0,4.0,87,0.00,,,0.00,0,Wunderground v.1.15,2013-02-17 09:29:00,
2013-02-17 03:34:00,22.9,19.9,29.85,SSW,202,1.0,4.0,88,0.00,,,0.00,0,Wunderground v.1.15,2013-02-17 09:34:00,
2013-02-17 03:39:00,22.5,19.5,29.85,SSW,202,1.0,4.0,88,0.00,,,0.00,0,Wunderground v.1.15,2013-02-17 09:39:00,
2013-02-17 03:44:00,22.2,18.9,29.85,SSW,202,2.0,3.0,87,0.00,,,0.00,0,Wunderground v.1.15,2013-02-17 09:44:00,
2013-02-17 03:49:00,22.1,19.1,29.85,SSW,202,3.0,3.0,88,0.00,,,0.00,0,Wunderground v.1.15,2013-02-17 09:49:00,
2013-02-17 03:54:00,22.8,19.8,29.84,SSW,200,5.0,5.0,88,0.00,,,0.00,0,Wunderground v.1.15,2013-02-17 09:54:00,
2013-02-17 03:59:00,23.2,20.2,29.84,SSW,200,4.0,5.0,88,0.00,,,0.00,0,Wunderground v.1.15,2013-02-17 09:59:00,
2013-02-17 04:04:00,23.3,20.3,29.83,South,184,4.0,6.0,88,0.00,,,0.00,0,Wunderground v.1.15,2013-02-17 10:04:00,
2013-02-17 04:09:00,23.8,20.8,29.83,South,184,5.0,6.0,88,0.00,,,0.00,0,Wunderground v.1.15,2013-02-17 10:09:00,
2013-02-17 04:14:00,24.7,21.7,29.83,South,186,5.0,6.0,88,0.00,,,0.00,0,Wunderground v.1.15,2013-02-17 10:14:00,
2013-02-17 04:19:00,25.1,22.0,29.82,South,180,5.0,8.0,88,0.00,,,0.00,0,Wunderground v.1.15,2013-02-17 10:19:00,
2013-02-17 04:24:00,25.0,21.7,29.82,South,177,6.0,7.0,87,0.00,,,0.00,0,Wunderground v.1.15,2013-02-17 10:24:00,
2013-02-17 04:29:00,24.8,21.5,29.82,South,177,3.0,7.0,87,0.00,,,0.00,0,Wunderground v.1.15,2013-02-17 10:29:00,
2013-02-17 04:34:00,24.9,21.6,29.82,South,177,2.0,5.0,87,0.00,,,0.00,0,Wunderground v.1.15,2013-02-17 10:34:00,
2013-02-17 04:39:00,25.2,21.9,29.82,South,177,1.0,5.0,87,0.00,,,0.00,0,Wunderground v.1.15,2013-02-17 10:39:00,
2013-02-17 04:44:00,25.3,22.0,29.82,South,177,2.0,4.0,87,0.00,,,0.00,0,Wunderground v.1.15,2013-02-17 10:44:00,
2013-02-17 04:49:00,25.6,22.3,29.82,SSW,198,5.0,7.0,87,0.00,,,0.00,0,Wunderground v.1.15,2013-02-17 10:49:00,
2013-02-17 04:54:00,25.7,22.4,29.82,SSW,198,4.0,7.0,87,0.00,,,0.00,0,Wunderground v.1.15,2013-02-17 10:54:00,
2013-02-17 04:59:00,25.7,22.1,29.82,SSW,200,4.0,7.0,86,0.00,,,0.00,0,Wunderground v.1.15,2013-02-17 10:59:00,
2013-02-17 05:04:00,25.7,22.1,29.82,SSW,209,4.0,6.0,86,0.00,,,0.00,0,Wunderground v.1.15,2013-02-17 11:04:00,
2013-02-17 05:09:00,25.6,22.0,29.82,SSW,196,4.0,6.0,86,0.00,,,0.00,0,Wunderground v.1.15,2013-02-17 11:09:00,
2013-02-17 05:14:00,25.6,22.0,29.82,SSW,197,4.0,7.0,86,0.00,,,0.00,0,Wunderground v.1.15,2013-02-17 11:14:00,
2013-02-17 05:19:00,25.6,22.0,29.81,SSW,196,4.0,7.0,86,0.00,,,0.00,0,Wunderground v.1.15,2013-02-17 11:19:00,
2013-02-17 05:24:00,25.3,21.7,29.81,SSW,196,2.0,4.0,86,0.00,,,0.00,0,Wunderground v.1.15,2013-02-17 11:24:00,
2013-02-17 05:29:00,25.2,21.6,29.81,SSW,196,4.0,6.0,86,0.00,,,0.00,0,Wunderground v.1.15,2013-02-17 11:29:00,
2013-02-17 05:34:00,25.1,21.5,29.81,South,185,4.0,7.0,86,0.00,,,0.00,0,Wunderground v.1.15,2013-02-17 11:34:00,
2013-02-17 05:39:00,25.3,21.7,29.80,South,186,3.0,7.0,86,0.00,,,0.00,0,Wunderground v.1.15,2013-02-17 11:39:00,
2013-02-17 05:44:00,25.2,21.6,29.80,South,186,2.0,4.0,86,0.00,,,0.00,0,Wunderground v.1.15,2013-02-17 11:44:00,
2013-02-17 05:49:00,25.1,21.5,29.80,South,186,4.0,4.0,86,0.00,,,0.00,0,Wunderground v.1.15,2013-02-17 11:49:00,
2013-02-17 05:54:00,24.8,21.2,29.79,South,183,5.0,6.0,86,0.00,,,0.00,0,Wunderground v.1.15,2013-02-17 11:54:00,
2013-02-17 05:59:00,24.7,21.1,29.79,South,183,4.0,6.0,86,0.00,,,0.00,0,Wunderground v.1.15,2013-02-17 11:59:00,
2013-02-17 06:04:00,24.5,20.9,29.79,South,183,4.0,5.0,86,0.00,,,0.00,0,Wunderground v.1.15,2013-02-17 12:04:00,
2013-02-17 06:09:00,24.4,20.8,29.79,South,181,3.0,5.0,86,0.00,,,0.00,0,Wunderground v.1.15,2013-02-17 12:09:00,
2013-02-17 06:14:00,24.4,21.1,29.79,South,180,4.0,6.0,87,0.00,,,0.00,0,Wunderground v.1.15,2013-02-17 12:14:00,
2013-02-17 06:19:00,24.4,21.1,29.78,South,179,4.0,6.0,87,0.00,,,0.00,0,Wunderground v.1.15,2013-02-17 12:19:00,
2013-02-17 06:24:00,24.6,21.3,29.78,South,179,6.0,6.0,87,0.00,,,0.00,0,Wunderground v.1.15,2013-02-17 12:24:00,
2013-02-17 06:29:00,25.0,21.7,29.78,South,179,4.0,6.0,87,0.00,,,0.00,0,Wunderground v.1.15,2013-02-17 12:29:00,
2013-02-17 06:34:00,25.1,21.8,29.77,South,179,3.0,5.0,87,0.00,,,0.00,0,Wunderground v.1.15,2013-02-17 12:34:00,
2013-02-17 06:39:00,24.9,21.6,29.78,South,179,1.0,5.0,87,0.00,,,0.00,0,Wunderground v.1.15,2013-02-17 12:39:00,
2013-02-17 06:44:00,24.5,20.9,29.77,South,179,2.0,3.0,86,0.00,,,0.00,0,Wunderground v.1.15,2013-02-17 12:44:00,
2013-02-17 06:49:00,24.1,20.5,29.77,South,179,2.0,3.0,86,0.00,,,0.00,0,Wunderground v.1.15,2013-02-17 12:49:00,
2013-02-17 06:54:00,24.2,20.9,29.77,South,179,2.0,3.0,87,0.00,,,0.00,0,Wunderground v.1.15,2013-02-17 12:54:00,
2013-02-17 06:59:00,23.9,20.6,29.77,South,185,3.0,5.0,87,0.00,,,0.00,0,Wunderground v.1.15,2013-02-17 12:59:00,
2013-02-17 07:04:00,24.1,20.8,29.77,South,185,4.0,6.0,87,0.00,,,0.00,0,Wunderground v.1.15,2013-02-17 13:04:00,
2013-02-17 07:09:00,24.4,21.1,29.77,South,185,4.0,6.0,87,0.00,,,0.00,0,Wunderground v.1.15,2013-02-17 13:09:00,
2013-02-17 07:14:00,24.3,21.0,29.76,South,185,4.0,5.0,87,0.00,,,0.00,0,Wunderground v.1.15,2013-02-17 13:14:00,
2013-02-17 07:19:00,24.5,21.2,29.76,South,185,4.0,6.0,87,0.00,,,0.00,0,Wunderground v.1.15,2013-02-17 13:19:00,
2013-02-17 07:24:00,25.1,22.0,29.76,SSW,194,6.0,7.0,88,0.00,,,0.00,0,Wunderground v.1.15,2013-02-17 13:24:00,
2013-02-17 07:29:00,25.4,22.1,29.76,South,178,7.0,9.0,87,0.00,,,0.00,5,Wunderground v.1.15,2013-02-17 13:29:00,
2013-02-17 07:34:00,25.4,22.1,29.76,South,179,6.0,8.0,87,0.00,,,0.00,9,Wunderground v.1.15,2013-02-17 13:34:00,
2013-02-17 07:39:00,25.3,22.0,29.76,South,181,5.0,8.0,87,0.00,,,0.00,11,Wunderground v.1.15,2013-02-17 13:39:00,
2013-02-17 07:44:00,25.1,21.8,29.76,South,185,7.0,7.0,87,0.00,,,0.00,14,Wunderground v.1.15,2013-02-17 13:44:00,
2013-02-17 07:49:00,25.2,21.9,29.76,SSW,200,6.0,8.0,87,0.00,,,0.00,19,Wunderground v.1.15,2013-02-17 13:49:00,
2013-02-17 07:54:00,25.3,22.0,29.76,SSW,196,4.0,7.0,87,0.00,,,0.00,28,Wunderground v.1.15,2013-02-17 13:54:00,
2013-02-17 07:59:00,25.4,22.1,29.75,SSW,196,4.0,7.0,87,0.00,,,0.00,44,Wunderground v.1.15,2013-02-17 13:59:00,
2013-02-17 08:04:00,25.7,22.4,29.75,SSW,194,5.0,7.0,87,0.00,,,0.00,56,Wunderground v.1.15,2013-02-17 14:04:00,
2013-02-17 08:09:00,26.5,23.2,29.75,SSW,195,6.0,9.0,87,0.00,,,0.00,72,Wunderground v.1.15,2013-02-17 14:09:00,
2013-02-17 08:14:00,27.5,24.1,29.75,SSW,194,8.0,9.0,87,0.00,,,0.00,81,Wunderground v.1.15,2013-02-17 14:14:00,
2013-02-17 08:19:00,28.3,24.9,29.75,SSW,193,5.0,9.0,87,0.00,,,0.00,88,Wunderground v.1.15,2013-02-17 14:19:00,
2013-02-17 08:24:00,28.8,25.4,29.74,SSW,196,7.0,10.0,87,0.00,,,0.00,93,Wunderground v.1.15,2013-02-17 14:24:00,
2013-02-17 08:29:00,29.4,26.0,29.74,SSW,203,9.0,10.0,87,0.00,,,0.00,134,Wunderground v.1.15,2013-02-17 14:29:00,
2013-02-17 08:34:00,30.1,26.7,29.74,South,182,7.0,11.0,87,0.00,,,0.00,149,Wunderground v.1.15,2013-02-17 14:34:00,
2013-02-17 08:39:00,30.6,26.9,29.74,SSW,194,7.0,11.0,86,0.00,,,0.00,137,Wunderground v.1.15,2013-02-17 14:39:00,
2013-02-17 08:44:00,31.1,27.4,29.73,South,189,9.0,12.0,86,0.00,,,0.00,172,Wunderground v.1.15,2013-02-17 14:44:00,
2013-02-17 08:49:00,31.5,27.8,29.73,South,178,8.0,12.0,86,0.00,,,0.00,200,Wunderground v.1.15,2013-02-17 14:49:00,
2013-02-17 08:54:00,31.8,27.8,29.73,South,188,10.0,17.0,85,0.00,,,0.00,220,Wunderground v.1.15,2013-02-17 14:54:00,
2013-02-17 08:59:00,32.1,28.1,29.73,SSW,192,9.0,17.0,85,0.00,,,0.00,236,Wunderground v.1.15,2013-02-17 14:59:00,
2013-02-17 09:04:00,32.4,28.4,29.74,SSW,198,10.0,13.0,85,0.00,,,0.00,250,Wunderground v.1.15,2013-02-17 15:04:00,
2013-02-17 09:09:00,32.8,28.8,29.73,South,186,12.0,15.0,85,0.00,,,0.00,294,Wunderground v.1.15,2013-02-17 15:09:00,
2013-02-17 09:14:00,33.4,29.4,29.73,SSW,192,10.0,14.0,85,0.00,,,0.00,292,Wunderground v.1.15,2013-02-17 15:14:00,
2013-02-17 09:19:00,33.7,29.4,29.73,South,185,11.0,17.0,84,0.00,,,0.00,299,Wunderground v.1.15,2013-02-17 15:19:00,
2013-02-17 09:24:00,34.0,29.7,29.73,South,182,11.0,16.0,84,0.00,,,0.00,308,Wunderground v.1.15,2013-02-17 15:24:00,
2013-02-17 09:29:00,34.4,30.1,29.72,South,178,11.0,17.0,84,0.00,,,0.00,325,Wunderground v.1.15,2013-02-17 15:29:00,
2013-02-17 09:34:00,35.0,30.4,29.72,South,182,14.0,16.0,83,0.00,,,0.00,343,Wunderground v.1.15,2013-02-17 15:34:00,
2013-02-17 09:39:00,35.6,30.9,29.71,South,177,16.0,19.0,83,0.00,,,0.00,366,Wunderground v.1.15,2013-02-17 15:39:00,
2013-02-17 09:44:00,36.4,31.4,29.71,South,175,10.0,16.0,82,0.00,,,0.00,374,Wunderground v.1.15,2013-02-17 15:44:00,
2013-02-17 09:49:00,37.1,31.8,29.71,SSW,196,15.0,16.0,81,0.00,,,0.00,369,Wunderground v.1.15,2013-02-17 15:49:00,
2013-02-17 09:54:00,37.5,31.9,29.70,South,184,13.0,20.0,80,0.00,,,0.00,373,Wunderground v.1.15,2013-02-17 15:54:00,
2013-02-17 09:59:00,38.3,32.7,29.70,South,189,11.0,20.0,80,0.00,,,0.00,374,Wunderground v.1.15,2013-02-17 15:59:00,
2013-02-17 10:04:00,39.3,33.0,29.70,South,188,13.0,18.0,78,0.00,,,0.00,394,Wunderground v.1.15,2013-02-17 16:04:00,
2013-02-17 10:09:00,40.1,33.1,29.70,SSW,206,10.0,18.0,76,0.00,,,0.00,406,Wunderground v.1.15,2013-02-17 16:09:00,
2013-02-17 10:14:00,40.1,32.5,29.69,SSW,202,10.0,18.0,74,0.00,,,0.00,394,Wunderground v.1.15,2013-02-17 16:14:00,
2013-02-17 10:19:00,40.5,32.5,29.69,South,189,11.0,18.0,73,0.00,,,0.00,415,Wunderground v.1.15,2013-02-17 16:19:00,
2013-02-17 10:24:00,41.6,33.2,29.68,SSW,193,10.0,17.0,72,0.00,,,0.00,448,Wunderground v.1.15,2013-02-17 16:24:00,
2013-02-17 10:29:00,42.5,33.4,29.68,South,182,11.0,19.0,70,0.00,,,0.00,473,Wunderground v.1.15,2013-02-17 16:29:00,
2013-02-17 10:34:00,43.4,33.5,29.68,South,169,13.0,18.0,68,0.00,,,0.00,487,Wunderground v.1.15,2013-02-17 16:34:00,
2013-02-17 10:39:00,44.6,34.3,29.67,South,182,11.0,18.0,67,0.00,,,0.00,473,Wunderground v.1.15,2013-02-17 16:39:00,
2013-02-17 10:44:00,44.6,33.6,29.67,SSE,167,12.0,15.0,65,0.00,,,0.00,499,Wunderground v.1.15,2013-02-17 16:44:00,
2013-02-17 10:49:00,45.1,33.6,29.67,South,175,13.0,17.0,64,0.00,,,0.00,503,Wunderground v.1.15,2013-02-17 16:49:00,
2013-02-17 10:54:00,45.4,33.5,29.66,South,175,10.0,15.0,63,0.00,,,0.00,529,Wunderground v.1.15,2013-02-17 16:54:00,
2013-02-17 10:59:00,45.9,33.6,29.66,South,178,13.0,17.0,62,0.00,,,0.00,390,Wunderground v.1.15,2013-02-17 16:59:00,
2013-02-17 11:04:00,46.8,33.6,29.66,SSE,167,13.0,15.0,60,0.00,,,0.00,594,Wunderground v.1.15,2013-02-17 17:04:00,
2013-02-17 11:09:00,47.9,33.8,29.65,South,175,13.0,16.0,58,0.00,,,0.00,533,Wunderground v.1.15,2013-02-17 17:09:00,
2013-02-17 11:14:00,48.2,33.2,29.65,South,190,11.0,18.0,56,0.00,,,0.00,383,Wunderground v.1.15,2013-02-17 17:14:00,
2013-02-17 11:19:00,47.9,32.5,29.64,South,175,15.0,18.0,55,0.00,,,0.00,367,Wunderground v.1.15,2013-02-17 17:19:00,
2013-02-17 11:24:00,48.6,33.1,29.64,SSW,200,9.0,16.0,55,0.00,,,0.00,483,Wunderground v.1.15,2013-02-17 17:24:00,
2013-02-17 11:29:00,48.9,33.4,29.63,South,178,14.0,17.0,55,0.00,,,0.00,443,Wunderground v.1.15,2013-02-17 17:29:00,
2013-02-17 11:34:00,49.1,33.2,29.63,SSE,165,11.0,15.0,54,0.00,,,0.00,519,Wunderground v.1.15,2013-02-17 17:34:00,
2013-02-17 11:39:00,50.3,33.3,29.63,South,181,17.0,18.0,52,0.00,,,0.00,466,Wunderground v.1.15,2013-02-17 17:39:00,
2013-02-17 11:44:00,50.3,32.8,29.63,South,177,14.0,15.0,51,0.00,,,0.00,343,Wunderground v.1.15,2013-02-17 17:44:00,
2013-02-17 11:49:00,50.2,32.8,29.62,SSE,168,10.0,20.0,51,0.00,,,0.00,308,Wunderground v.1.15,2013-02-17 17:49:00,
2013-02-17 11:54:00,50.3,32.8,29.62,South,188,12.0,18.0,51,0.00,,,0.00,543,Wunderground v.1.15,2013-02-17 17:54:00,
2013-02-17 11:59:00,51.5,33.5,29.62,South,174,12.0,18.0,50,0.00,,,0.00,573,Wunderground v.1.15,2013-02-17 17:59:00,
2013-02-17 12:04:00,52.0,32.9,29.61,South,188,14.0,19.0,48,0.00,,,0.00,603,Wunderground v.1.15,2013-02-17 18:04:00,
2013-02-17 12:09:00,52.8,33.1,29.61,South,182,11.0,19.0,47,0.00,,,0.00,543,Wunderground v.1.15,2013-02-17 18:09:00,
2013-02-17 12:14:00,53.9,31.3,29.60,SSW,207,16.0,22.0,42,0.00,,,0.00,492,Wunderground v.1.15,2013-02-17 18:14:00,
2013-02-17 12:19:00,54.2,31.0,29.60,SSW,194,13.0,22.0,41,0.00,,,0.00,399,Wunderground v.1.15,2013-02-17 18:19:00,
2013-02-17 12:24:00,53.6,31.6,29.60,SSW,207,9.0,17.0,43,0.00,,,0.00,359,Wunderground v.1.15,2013-02-17 18:24:00,
2013-02-17 12:29:00,54.6,31.9,29.59,SSW,198,14.0,18.0,42,0.00,,,0.00,594,Wunderground v.1.15,2013-02-17 18:29:00,
2013-02-17 12:34:00,55.4,31.5,29.59,SSW,192,16.0,21.0,40,0.00,,,0.00,554,Wunderground v.1.15,2013-02-17 18:34:00,
2013-02-17 12:39:00,55.9,31.3,29.58,SSW,192,12.0,24.0,39,0.00,,,0.00,652,Wunderground v.1.15,2013-02-17 18:39:00,
2013-02-17 12:44:00,56.9,31.5,29.57,SSW,206,18.0,22.0,38,0.00,,,0.00,647,Wunderground v.1.15,2013-02-17 18:44:00,
2013-02-17 12:48:00,57.2,31.8,29.57,SW,216,15.0,22.0,38,0.00,,,0.00,615,Wunderground v.1.15,2013-02-17 18:48:00,
2013-02-17 12:53:00,58.1,30.6,29.57,SSW,192,19.0,24.0,35,0.00,,,0.00,640,Wunderground v.1.15,2013-02-17 18:53:00,
2013-02-17 12:58:00,58.1,29.1,29.56,SSW,200,17.0,24.0,33,0.00,,,0.00,515,Wunderground v.1.15,2013-02-17 18:58:00,
2013-02-17 13:03:00,57.1,29.0,29.56,SSW,204,15.0,23.0,34,0.00,,,0.00,455,Wunderground v.1.15,2013-02-17 19:03:00,
2013-02-17 13:08:00,57.3,29.1,29.55,SSW,206,14.0,23.0,34,0.00,,,0.00,387,Wunderground v.1.15,2013-02-17 19:08:00,
2013-02-17 13:13:00,56.9,28.8,29.55,SSW,198,19.0,25.0,34,0.00,,,0.00,355,Wunderground v.1.15,2013-02-17 19:13:00,
2013-02-17 13:18:00,57.2,29.1,29.55,SSW,201,17.0,25.0,34,0.00,,,0.00,396,Wunderground v.1.15,2013-02-17 19:18:00,
2013-02-17 13:24:00,57.1,29.7,29.54,SSW,207,14.0,22.0,35,0.00,,,0.00,394,Wunderground v.1.15,2013-02-17 19:24:00,
2013-02-17 13:29:00,57.5,30.0,29.53,SSW,196,12.0,22.0,35,0.00,,,0.00,471,Wunderground v.1.15,2013-02-17 19:29:00,
2013-02-17 13:34:00,58.2,30.7,29.53,SW,217,22.0,26.0,35,0.00,,,0.00,568,Wunderground v.1.15,2013-02-17 19:34:00,
2013-02-17 13:39:00,58.9,30.6,29.53,SSW,211,13.0,26.0,34,0.00,,,0.00,570,Wunderground v.1.15,2013-02-17 19:39:00,
2013-02-17 13:44:00,59.4,30.3,29.52,SSW,198,17.0,23.0,33,0.00,,,0.00,480,Wunderground v.1.15,2013-02-17 19:44:00,
2013-02-17 13:49:00,59.5,29.6,29.52,SSW,207,17.0,25.0,32,0.00,,,0.00,471,Wunderground v.1.15,2013-02-17 19:49:00,
2013-02-17 13:54:00,59.9,29.2,29.51,SSW,200,23.0,31.0,31,0.00,,,0.00,431,Wunderground v.1.15,2013-02-17 19:54:00,
2013-02-17 13:59:00,59.8,28.3,29.51,South,187,16.0,31.0,30,0.00,,,0.00,392,Wunderground v.1.15,2013-02-17 19:59:00,
2013-02-17 14:04:00,60.2,28.6,29.50,SSW,209,19.0,30.0,30,0.00,,,0.00,431,Wunderground v.1.15,2013-02-17 20:04:00,
2013-02-17 14:09:00,60.4,28.0,29.50,SW,215,13.0,30.0,29,0.00,,,0.00,543,Wunderground v.1.15,2013-02-17 20:09:00,
2013-02-17 14:14:00,60.8,27.5,29.50,SSW,198,23.0,29.0,28,0.00,,,0.00,436,Wunderground v.1.15,2013-02-17 20:14:00,
2013-02-17 14:19:00,60.6,27.3,29.49,SW,214,19.0,29.0,28,0.00,,,0.00,381,Wunderground v.1.15,2013-02-17 20:19:00,
2013-02-17 14:24:00,60.7,27.4,29.49,SW,218,19.0,29.0,28,0.00,,,0.00,341,Wunderground v.1.15,2013-02-17 20:24:00,
2013-02-17 14:29:00,60.7,27.4,29.49,SW,215,18.0,29.0,28,0.00,,,0.00,330,Wunderground v.1.15,2013-02-17 20:29:00,
2013-02-17 14:34:00,60.8,27.5,29.49,South,189,18.0,26.0,28,0.00,,,0.00,410,Wunderground v.1.15,2013-02-17 20:34:00,
2013-02-17 14:39:00,62.3,26.9,29.48,SSW,200,17.0,26.0,26,0.00,,,0.00,473,Wunderground v.1.15,2013-02-17 20:39:00,
2013-02-17 14:44:00,62.9,25.5,29.48,SW,214,13.0,25.0,24,0.00,,,0.00,374,Wunderground v.1.15,2013-02-17 20:44:00,
2013-02-17 14:49:00,62.9,25.5,29.48,SW,223,22.0,26.0,24,0.00,,,0.00,357,Wunderground v.1.15,2013-02-17 20:49:00,
2013-02-17 14:54:00,63.1,23.6,29.48,SW,235,26.0,31.0,22,0.00,,,0.00,392,Wunderground v.1.15,2013-02-17 20:54:00,
2013-02-17 14:59:00,63.0,23.5,29.47,SW,236,15.0,31.0,22,0.00,,,0.00,327,Wunderground v.1.15,2013-02-17 20:59:00,
2013-02-17 15:04:00,62.9,23.4,29.47,SSW,210,16.0,22.0,22,0.00,,,0.00,406,Wunderground v.1.15,2013-02-17 21:04:00,
2013-02-17 15:09:00,62.8,23.3,29.47,SSW,209,20.0,28.0,22,0.00,,,0.00,318,Wunderground v.1.15,2013-02-17 21:09:00,
2013-02-17 15:14:00,62.6,23.2,29.46,SW,229,21.0,28.0,22,0.00,,,0.00,348,Wunderground v.1.15,2013-02-17 21:14:00,
2013-02-17 15:19:00,62.9,23.4,29.47,SSW,208,15.0,28.0,22,0.00,,,0.00,346,Wunderground v.1.15,2013-02-17 21:19:00,
2013-02-17 15:24:00,63.2,23.7,29.46,SSW,209,19.0,27.0,22,0.00,,,0.00,408,Wunderground v.1.15,2013-02-17 21:24:00,
2013-02-17 15:29:00,63.5,23.9,29.46,SW,223,19.0,28.0,22,0.00,,,0.00,371,Wunderground v.1.15,2013-02-17 21:29:00,
2013-02-17 15:34:00,63.5,21.7,29.46,SSW,203,12.0,26.0,20,0.00,,,0.00,413,Wunderground v.1.15,2013-02-17 21:34:00,
2013-02-17 15:39:00,63.4,22.7,29.46,SW,223,22.0,27.0,21,0.00,,,0.00,346,Wunderground v.1.15,2013-02-17 21:39:00,
2013-02-17 15:44:00,63.1,23.6,29.46,SSW,213,16.0,27.0,22,0.00,,,0.00,304,Wunderground v.1.15,2013-02-17 21:44:00,
2013-02-17 15:49:00,62.8,24.4,29.46,SSW,200,15.0,27.0,23,0.00,,,0.00,264,Wunderground v.1.15,2013-02-17 21:49:00,
2013-02-17 15:54:00,62.8,24.4,29.46,SW,222,12.0,22.0,23,0.00,,,0.00,236,Wunderground v.1.15,2013-02-17 21:54:00,
2013-02-17 15:59:00,62.7,24.3,29.46,SW,235,10.0,22.0,23,0.00,,,0.00,262,Wunderground v.1.15,2013-02-17 21:59:00,
2013-02-17 16:04:00,62.8,23.3,29.46,SSW,205,7.0,22.0,22,0.00,,,0.00,227,Wunderground v.1.15,2013-02-17 22:04:00,
2013-02-17 16:09:00,62.6,23.2,29.45,SSW,213,14.0,22.0,22,0.00,,,0.00,214,Wunderground v.1.15,2013-02-17 22:09:00,
2013-02-17 16:14:00,62.5,23.1,29.45,SSW,195,11.0,17.0,22,0.00,,,0.00,195,Wunderground v.1.15,2013-02-17 22:14:00,
2013-02-17 16:19:00,62.6,24.2,29.46,SW,232,10.0,22.0,23,0.00,,,0.00,202,Wunderground v.1.15,2013-02-17 22:19:00,
2013-02-17 16:24:00,62.5,23.1,29.46,SW,217,11.0,18.0,22,0.00,,,0.00,185,Wunderground v.1.15,2013-02-17 22:24:00,
2013-02-17 16:29:00,62.4,23.0,29.45,SW,227,10.0,19.0,22,0.00,,,0.00,176,Wunderground v.1.15,2013-02-17 22:29:00,
2013-02-17 16:34:00,62.2,22.8,29.45,SSW,202,8.0,12.0,22,0.00,,,0.00,156,Wunderground v.1.15,2013-02-17 22:34:00,
2013-02-17 16:39:00,62.0,21.6,29.45,SW,226,9.0,17.0,21,0.00,,,0.00,144,Wunderground v.1.15,2013-02-17 22:39:00,
2013-02-17 16:44:00,61.7,21.3,29.45,WSW,241,6.0,11.0,21,0.00,,,0.00,128,Wunderground v.1.15,2013-02-17 22:44:00,
2013-02-17 16:49:00,61.5,20.0,29.45,WSW,238,7.0,11.0,20,0.00,,,0.00,113,Wunderground v.1.15,2013-02-17 22:49:00,
2013-02-17 16:53:00,61.2,20.9,29.45,WSW,240,4.0,10.0,21,0.00,,,0.00,102,Wunderground v.1.15,2013-02-17 22:53:00,
2013-02-17 16:59:00,60.8,21.7,29.45,WSW,238,3.0,10.0,22,0.00,,,0.00,93,Wunderground v.1.15,2013-02-17 22:59:00,
2013-02-17 17:04:00,60.4,21.3,29.45,WSW,240,5.0,9.0,22,0.00,,,0.00,83,Wunderground v.1.15,2013-02-17 23:04:00,
2013-02-17 17:09:00,60.0,22.0,29.45,West,265,3.0,11.0,23,0.00,,,0.00,70,Wunderground v.1.15,2013-02-17 23:09:00,
2013-02-17 17:14:00,59.5,22.6,29.45,WSW,257,2.0,6.0,24,0.00,,,0.00,62,Wunderground v.1.15,2013-02-17 23:14:00,
2013-02-17 17:19:00,58.9,23.1,29.45,WSW,248,3.0,9.0,25,0.00,,,0.00,53,Wunderground v.1.15,2013-02-17 23:19:00,
2013-02-17 17:24:00,58.0,23.3,29.45,WSW,255,3.0,6.0,26,0.00,,,0.00,46,Wunderground v.1.15,2013-02-17 23:24:00,
2013-02-17 17:29:00,57.2,23.5,29.45,WSW,257,4.0,7.0,27,0.00,,,0.00,40,Wunderground v.1.15,2013-02-17 23:29:00,
2013-02-17 17:34:00,56.5,22.9,29.45,WSW,255,1.0,7.0,27,0.00,,,0.00,35,Wunderground v.1.15,2013-02-17 23:34:00,
2013-02-17 17:39:00,55.8,23.1,29.46,WSW,249,3.0,7.0,28,0.00,,,0.00,30,Wunderground v.1.15,2013-02-17 23:39:00,
2013-02-17 17:44:00,55.1,22.5,29.46,SW,232,3.0,5.0,28,0.00,,,0.00,23,Wunderground v.1.15,2013-02-17 23:44:00,
2013-02-17 17:49:00,54.4,22.8,29.46,WSW,249,2.0,7.0,29,0.00,,,0.00,18,Wunderground v.1.15,2013-02-17 23:49:00,
2013-02-17 17:54:00,53.7,22.2,29.46,WSW,248,1.0,6.0,29,0.00,,,0.00,12,Wunderground v.1.15,2013-02-17 23:54:00,
2013-02-17 17:59:00,53.0,22.4,29.46,WSW,246,3.0,6.0,30,0.00,,,0.00,7,Wunderground v.1.15,2013-02-17 23:59:00,
2013-02-17 18:04:00,52.4,21.0,29.46,SW,223,1.0,6.0,29,0.00,,,0.00,0,Wunderground v.1.15,2013-02-18 00:04:00,
2013-02-17 18:09:00,52.0,21.5,29.46,SW,230,3.0,6.0,30,0.00,,,0.00,0,Wunderground v.1.15,2013-02-18 00:09:00,
2013-02-17 18:14:00,51.5,21.0,29.46,SW,230,1.0,4.0,30,0.00,,,0.00,0,Wunderground v.1.15,2013-02-18 00:14:00,
2013-02-17 18:19:00,50.5,20.9,29.46,SW,230,1.0,4.0,31,0.00,,,0.00,0,Wunderground v.1.15,2013-02-18 00:19:00,
2013-02-17 18:24:00,48.7,20.8,29.46,SW,230,1.0,4.0,33,0.00,,,0.00,0,Wunderground v.1.15,2013-02-18 00:24:00,
2013-02-17 18:28:00,47.3,21.0,29.47,SW,230,0.0,4.0,35,0.00,,,0.00,0,Wunderground v.1.15,2013-02-18 00:28:00,
2013-02-17 18:33:00,46.2,20.7,29.47,SW,230,2.0,3.0,36,0.00,,,0.00,0,Wunderground v.1.15,2013-02-18 00:33:00,
2013-02-17 18:38:00,45.0,21.5,29.47,SW,229,3.0,4.0,39,0.00,,,0.00,0,Wunderground v.1.15,2013-02-18 00:38:00,
2013-02-17 18:43:00,44.7,21.8,29.47,SW,229,2.0,3.0,40,0.00,,,0.00,0,Wunderground v.1.15,2013-02-18 00:43:00,
2013-02-17 18:48:00,44.8,21.3,29.47,SW,229,2.0,3.0,39,0.00,,,0.00,0,Wunderground v.1.15,2013-02-18 00:48:00,
2013-02-17 18:53:00,44.2,20.8,29.47,SW,228,4.0,5.0,39,0.00,,,0.00,0,Wunderground v.1.15,2013-02-18 00:53:00,
2013-02-17 18:58:00,44.1,21.3,29.47,SW,228,3.0,5.0,40,0.00,,,0.00,0,Wunderground v.1.15,2013-02-18 00:58:00,
2013-02-17 19:03:00,43.9,21.1,29.47,SW,228,4.0,4.0,40,0.00,,,0.00,0,Wunderground v.1.15,2013-02-18 01:03:00,
2013-02-17 19:08:00,42.1,21.2,29.47,SW,219,4.0,6.0,43,0.00,,,0.00,0,Wunderground v.1.15,2013-02-18 01:08:00,
2013-02-17 19:13:00,41.4,21.6,29.47,SW,215,6.0,6.0,45,0.00,,,0.00,0,Wunderground v.1.15,2013-02-18 01:13:00,
2013-02-17 19:18:00,40.4,21.7,29.47,SSW,211,4.0,6.0,47,0.00,,,0.00,0,Wunderground v.1.15,2013-02-18 01:18:00,
2013-02-17 19:23:00,40.0,22.4,29.47,SSW,211,4.0,5.0,49,0.00,,,0.00,0,Wunderground v.1.15,2013-02-18 01:23:00,
2013-02-17 19:28:00,40.1,22.0,29.47,SSW,211,2.0,5.0,48,0.00,,,0.00,0,Wunderground v.1.15,2013-02-18 01:28:00,
2013-02-17 19:33:00,40.4,21.7,29.47,SSW,210,3.0,6.0,47,0.00,,,0.00,0,Wunderground v.1.15,2013-02-18 01:33:00,
2013-02-17 19:38:00,39.9,21.8,29.47,SSW,210,4.0,6.0,48,0.00,,,0.00,0,Wunderground v.1.15,2013-02-18 01:38:00,
2013-02-17 19:43:00,39.5,21.9,29.47,SSW,210,2.0,5.0,49,0.00,,,0.00,0,Wunderground v.1.15,2013-02-18 01:43:00,
2013-02-17 19:48:00,39.5,21.9,29.47,SSW,210,3.0,5.0,49,0.00,,,0.00,0,Wunderground v.1.15,2013-02-18 01:48:00,
2013-02-17 19:53:00,40.0,21.4,29.47,SSW,210,2.0,3.0,47,0.00,,,0.00,0,Wunderground v.1.15,2013-02-18 01:53:00,
2013-02-17 19:58:00,39.9,21.3,29.47,SSW,210,3.0,4.0,47,0.00,,,0.00,0,Wunderground v.1.15,2013-02-18 01:58:00,
2013-02-17 20:03:00,40.9,21.7,29.48,SSW,210,4.0,5.0,46,0.00,,,0.00,0,Wunderground v.1.15,2013-02-18 02:03:00,
2013-02-17 20:08:00,41.5,21.7,29.48,SSW,210,3.0,5.0,45,0.00,,,0.00,0,Wunderground v.1.15,2013-02-18 02:08:00,
2013-02-17 20:13:00,40.6,21.9,29.48,SSW,209,3.0,5.0,47,0.00,,,0.00,0,Wunderground v.1.15,2013-02-18 02:13:00,
2013-02-17 20:18:00,39.8,22.2,29.48,SSW,209,2.0,5.0,49,0.00,,,0.00,0,Wunderground v.1.15,2013-02-18 02:18:00,
2013-02-17 20:23:00,39.6,22.0,29.48,SSW,209,3.0,4.0,49,0.00,,,0.00,0,Wunderground v.1.15,2013-02-18 02:23:00,
2013-02-17 20:28:00,39.2,21.6,29.48,SSW,209,1.0,4.0,49,0.00,,,0.00,0,Wunderground v.1.15,2013-02-18 02:28:00,
2013-02-17 20:33:00,39.1,22.9,29.48,SSW,209,2.0,2.0,52,0.00,,,0.00,0,Wunderground v.1.15,2013-02-18 02:33:00,
2013-02-17 20:38:00,38.6,22.5,29.48,SSW,209,1.0,2.0,52,0.00,,,0.00,0,Wunderground v.1.15,2013-02-18 02:38:00,
2013-02-17 20:43:00,38.3,22.6,29.48,SSW,209,2.0,3.0,53,0.00,,,0.00,0,Wunderground v.1.15,2013-02-18 02:43:00,
2013-02-17 20:48:00,38.0,22.8,29.48,SSW,209,2.0,3.0,54,0.00,,,0.00,0,Wunderground v.1.15,2013-02-18 02:48:00,
2013-02-17 20:53:00,38.0,23.3,29.48,SSW,209,3.0,3.0,55,0.00,,,0.00,0,Wunderground v.1.15,2013-02-18 02:53:00,
2013-02-17 20:58:00,38.2,23.4,29.48,SSW,209,3.0,4.0,55,0.00,,,0.00,0,Wunderground v.1.15,2013-02-18 02:58:00,
2013-02-17 21:03:00,38.5,24.1,29.49,SSW,209,0.0,3.0,56,0.00,,,0.00,0,Wunderground v.1.15,2013-02-18 03:03:00,
2013-02-17 21:08:00,38.1,23.8,29.49,SSW,209,3.0,4.0,56,0.00,,,0.00,0,Wunderground v.1.15,2013-02-18 03:08:00,
2013-02-17 21:13:00,37.5,24.1,29.49,SSW,209,2.0,4.0,58,0.00,,,0.00,0,Wunderground v.1.15,2013-02-18 03:13:00,
2013-02-17 21:18:00,37.3,23.9,29.49,SSW,209,2.0,4.0,58,0.00,,,0.00,0,Wunderground v.1.15,2013-02-18 03:18:00,
2013-02-17 21:23:00,37.4,24.0,29.49,SSW,209,0.0,3.0,58,0.00,,,0.00,0,Wunderground v.1.15,2013-02-18 03:23:00,
2013-02-17 21:28:00,37.4,23.5,29.50,SSW,209,0.0,3.0,57,0.00,,,0.00,0,Wunderground v.1.15,2013-02-18 03:28:00,
2013-02-17 21:33:00,37.3,24.7,29.50,SSW,209,2.0,2.0,60,0.00,,,0.00,0,Wunderground v.1.15,2013-02-18 03:33:00,
2013-02-17 21:38:00,36.8,24.6,29.50,SSW,209,0.0,2.0,61,0.00,,,0.00,0,Wunderground v.1.15,2013-02-18 03:38:00,
2013-02-17 21:43:00,36.6,24.4,29.50,SSW,209,1.0,2.0,61,0.00,,,0.00,0,Wunderground v.1.15,2013-02-18 03:43:00,
2013-02-17 21:48:00,36.6,24.0,29.50,SSW,209,0.0,2.0,60,0.00,,,0.00,0,Wunderground v.1.15,2013-02-18 03:48:00,
2013-02-17 21:53:00,36.5,24.3,29.51,SSW,209,0.0,1.0,61,0.00,,,0.00,0,Wunderground v.1.15,2013-02-18 03:53:00,
2013-02-17 21:58:00,36.3,23.7,29.51,SSW,209,0.0,1.0,60,0.00,,,0.00,0,Wunderground v.1.15,2013-02-18 03:58:00,
2013-02-17 22:03:00,36.0,24.2,29.51,SSW,209,0.0,1.0,62,0.00,,,0.00,0,Wunderground v.1.15,2013-02-18 04:03:00,
2013-02-17 22:08:00,35.7,25.1,29.51,SW,228,3.0,4.0,65,0.00,,,0.00,0,Wunderground v.1.15,2013-02-18 04:08:00,
2013-02-17 22:13:00,36.0,25.7,29.51,WNW,292,6.0,7.0,66,0.00,,,0.00,0,Wunderground v.1.15,2013-02-18 04:13:00,
2013-02-17 22:18:00,39.7,26.9,29.51,WNW,294,6.0,10.0,60,0.00,,,0.00,0,Wunderground v.1.15,2013-02-18 04:18:00,
2013-02-17 22:23:00,41.8,27.7,29.51,WNW,298,7.0,13.0,57,0.00,,,0.00,0,Wunderground v.1.15,2013-02-18 04:23:00,
2013-02-17 22:28:00,43.4,28.3,29.51,WNW,300,9.0,13.0,55,0.00,,,0.00,0,Wunderground v.1.15,2013-02-18 04:28:00,
2013-02-17 22:33:00,44.0,28.4,29.52,WNW,297,8.0,11.0,54,0.00,,,0.00,0,Wunderground v.1.15,2013-02-18 04:33:00,
2013-02-17 22:38:00,44.4,28.3,29.52,NNW,346,18.0,18.0,53,0.00,,,0.00,0,Wunderground v.1.15,2013-02-18 04:38:00,
2013-02-17 22:43:00,44.6,29.4,29.52,NW,308,9.0,21.0,55,0.00,,,0.00,0,Wunderground v.1.15,2013-02-18 04:43:00,
2013-02-17 22:48:00,44.3,30.4,29.52,NW,316,14.0,21.0,58,0.00,,,0.00,0,Wunderground v.1.15,2013-02-18 04:48:00,
2013-02-17 22:53:00,43.9,30.9,29.53,NNW,344,13.0,24.0,60,0.00,,,0.00,0,Wunderground v.1.15,2013-02-18 04:53:00,
2013-02-17 22:58:00,43.6,31.4,29.53,West,279,11.0,24.0,62,0.00,,,0.00,0,Wunderground v.1.15,2013-02-18 04:58:00,
2013-02-17 23:00:00,43.5,31.3,29.53,NW,315,11.0,24.0,62,0.00,,,0.00,0,Wunderground v.1.15,2013-02-18 05:00:00,
2013-02-17 23:05:00,43.3,31.9,29.54,WNW,295,10.0,23.0,64,0.00,,,0.00,0,Wunderground v.1.15,2013-02-18 05:05:00,
2013-02-17 23:10:00,43.2,32.2,29.53,WNW,294,10.0,12.0,65,0.00,,,0.00,0,Wunderground v.1.15,2013-02-18 05:10:00,
2013-02-17 23:15:00,43.0,32.0,29.53,NW,326,10.0,23.0,65,0.00,,,0.00,0,Wunderground v.1.15,2013-02-18 05:15:00,
2013-02-17 23:20:00,42.6,32.0,29.54,NW,311,17.0,18.0,66,0.00,,,0.00,0,Wunderground v.1.15,2013-02-18 05:20:00,
2013-02-17 23:25:00,42.3,32.1,29.54,NNW,342,12.0,22.0,67,0.00,,,0.00,0,Wunderground v.1.15,2013-02-18 05:25:00,
2013-02-17 23:30:00,42.1,31.9,29.53,NW,321,13.0,15.0,67,0.00,,,0.00,0,Wunderground v.1.15,2013-02-18 05:30:00,
2013-02-17 23:35:00,41.9,32.1,29.53,NW,314,9.0,24.0,68,0.00,,,0.00,0,Wunderground v.1.15,2013-02-18 05:35:00,
2013-02-17 23:40:00,41.7,32.3,29.54,NNW,347,22.0,22.0,69,0.00,,,0.00,0,Wunderground v.1.15,2013-02-18 05:40:00,
2013-02-17 23:45:00,41.4,32.0,29.53,NNW,331,15.0,23.0,69,0.00,,,0.00,0,Wunderground v.1.15,2013-02-18 05:45:00,
2013-02-17 23:50:00,41.1,32.1,29.53,NW,326,19.0,27.0,70,0.00,,,0.00,0,Wunderground v.1.15,2013-02-18 05:50:00,
2013-02-17 23:55:00,40.9,32.2,29.54,NNW,342,19.0,25.0,71,0.00,,,0.00,0,Wunderground v.1.15,2013-02-18 05:55:00,